createdAt,value
2018-04-14T00:00:16.632Z,99.90
2018-04-14T00:02:44.907Z,99.90
2018-04-14T00:05:13.216Z,99.90
2018-04-14T00:07:40.785Z,99.90
2018-04-14T00:10:08.261Z,99.90
2018-04-14T00:12:36.914Z,99.90
2018-04-14T00:15:04.376Z,99.90
2018-04-14T00:17:32.688Z,99.90
2018-04-14T00:20:00.269Z,99.90
2018-04-14T00:22:27.857Z,99.90
2018-04-14T00:24:55.311Z,99.90
2018-04-14T00:27:22.828Z,99.90
2018-04-14T00:29:50.313Z,99.90
2018-04-14T00:32:17.833Z,99.90
2018-04-14T00:34:46.140Z,99.90
2018-04-14T00:37:14.411Z,99.90
2018-04-14T00:39:42.696Z,99.90
2018-04-14T00:42:10.165Z,99.90
2018-04-14T00:44:37.719Z,99.90
2018-04-14T00:47:05.223Z,99.90
2018-04-14T00:49:32.778Z,99.90
2018-04-14T00:52:00.281Z,99.90
2018-04-14T00:54:27.747Z,99.90
2018-04-14T00:56:55.349Z,99.90
2018-04-14T00:59:22.967Z,99.90
2018-04-14T01:01:51.228Z,99.90
2018-04-14T01:04:18.687Z,99.90
2018-04-14T01:06:46.549Z,99.90
2018-04-14T01:09:14.032Z,99.90
2018-04-14T01:11:41.510Z,99.90
2018-04-14T01:14:09.023Z,99.90
2018-04-14T01:16:36.521Z,99.90
2018-04-14T01:19:04.089Z,99.90
2018-04-14T01:21:31.556Z,99.90
2018-04-14T01:23:59.069Z,99.90
2018-04-14T01:26:26.580Z,99.90
2018-04-14T01:28:54.461Z,99.90
2018-04-14T01:31:22.042Z,99.90
2018-04-14T01:33:49.572Z,99.90
2018-04-14T01:36:17.045Z,99.90
2018-04-14T01:38:44.596Z,99.90
2018-04-14T01:41:12.115Z,99.90
2018-04-14T01:43:39.613Z,99.90
2018-04-14T01:46:07.899Z,99.90
2018-04-14T01:48:35.435Z,99.90
2018-04-14T01:51:02.967Z,99.90
2018-04-14T01:53:30.495Z,99.90
2018-04-14T01:55:58.056Z,99.90
2018-04-14T01:58:25.579Z,99.90
2018-04-14T02:00:53.843Z,99.90
2018-04-14T02:03:22.161Z,99.90
2018-04-14T02:05:49.656Z,99.90
2018-04-14T02:08:17.240Z,99.90
2018-04-14T02:10:45.584Z,99.90
2018-04-14T02:13:13.080Z,99.90
2018-04-14T02:15:40.701Z,99.90
2018-04-14T02:18:08.324Z,99.90
2018-04-14T02:20:35.914Z,99.90
2018-04-14T02:23:03.424Z,99.90
2018-04-14T02:25:30.930Z,99.90
2018-04-14T02:27:58.483Z,99.90
2018-04-14T02:30:25.996Z,99.90
2018-04-14T02:32:53.568Z,99.90
2018-04-14T02:35:21.142Z,99.90
2018-04-14T02:37:48.593Z,99.90
2018-04-14T02:40:16.179Z,99.90
2018-04-14T02:42:43.720Z,99.90
2018-04-14T02:45:11.970Z,99.90
2018-04-14T02:47:39.473Z,99.90
2018-04-14T02:50:06.994Z,99.90
2018-04-14T02:52:34.592Z,99.90
2018-04-14T02:55:02.226Z,99.90
2018-04-14T02:57:29.720Z,99.90
2018-04-14T02:59:57.209Z,99.90
2018-04-14T03:02:24.838Z,99.90
2018-04-14T03:04:52.356Z,99.90
2018-04-14T03:07:19.881Z,99.90
2018-04-14T03:09:47.363Z,99.90
2018-04-14T03:12:14.865Z,99.90
2018-04-14T03:14:43.146Z,99.90
2018-04-14T03:17:10.672Z,99.90
2018-04-14T03:19:38.185Z,99.90
2018-04-14T03:22:05.668Z,99.90
2018-04-14T03:24:33.219Z,99.90
2018-04-14T03:27:00.684Z,99.90
2018-04-14T03:29:28.257Z,99.90
2018-04-14T03:31:55.933Z,99.90
2018-04-14T03:34:23.456Z,99.90
2018-04-14T03:36:51.049Z,99.90
2018-04-14T03:39:18.622Z,99.90
2018-04-14T03:41:46.121Z,99.90
2018-04-14T03:44:13.614Z,99.90
2018-04-14T03:46:41.888Z,99.90
2018-04-14T03:49:10.182Z,99.90
2018-04-14T03:51:37.962Z,99.90
2018-04-14T03:54:05.561Z,99.90
2018-04-14T03:56:33.104Z,99.90
2018-04-14T03:59:00.624Z,99.90
2018-04-14T04:01:28.090Z,99.90
2018-04-14T04:03:56.544Z,99.90
2018-04-14T04:06:24.057Z,99.90
2018-04-14T04:08:52.294Z,99.90
2018-04-14T04:11:19.802Z,99.90
2018-04-14T04:13:47.316Z,99.90
2018-04-14T04:16:14.865Z,99.90
2018-04-14T04:18:42.393Z,99.90
2018-04-14T04:21:09.959Z,99.90
2018-04-14T04:23:37.449Z,99.90
2018-04-14T04:26:04.981Z,99.90
2018-04-14T04:28:32.461Z,99.90
2018-04-14T04:31:00.830Z,99.90
2018-04-14T04:33:29.138Z,99.90
2018-04-14T04:35:56.638Z,99.90
2018-04-14T04:38:24.160Z,99.90
2018-04-14T04:40:51.718Z,99.90
2018-04-14T04:43:19.177Z,99.90
2018-04-14T04:45:46.657Z,99.90
2018-04-14T04:48:14.215Z,99.90
2018-04-14T04:50:41.864Z,99.90
2018-04-14T04:53:09.290Z,99.90
2018-04-14T04:55:37.631Z,99.90
2018-04-14T04:58:05.195Z,99.90
2018-04-14T05:00:32.735Z,99.90
2018-04-14T05:03:00.282Z,99.90
2018-04-14T05:05:27.830Z,99.90
2018-04-14T05:07:57.296Z,99.90
2018-04-14T05:10:24.879Z,99.90
2018-04-14T05:12:52.381Z,99.90
2018-04-14T05:15:20.660Z,99.90
2018-04-14T05:17:49.061Z,99.90
2018-04-14T05:20:16.594Z,99.90
2018-04-14T05:22:44.078Z,99.90
2018-04-14T05:25:12.474Z,99.90
2018-04-14T05:27:39.925Z,99.90
2018-04-14T05:30:07.557Z,99.90
2018-04-14T05:32:35.773Z,99.90
2018-04-14T05:35:04.373Z,99.90
2018-04-14T05:37:32.009Z,99.90
2018-04-14T05:39:59.536Z,99.90
2018-04-14T05:42:27.066Z,99.90
2018-04-14T05:44:54.606Z,99.90
2018-04-14T05:47:22.095Z,99.90
2018-04-14T05:49:50.457Z,99.90
2018-04-14T05:52:17.996Z,99.90
2018-04-14T05:54:45.476Z,99.90
2018-04-14T05:57:13.840Z,99.90
2018-04-14T05:59:41.401Z,99.90
2018-04-14T06:02:08.831Z,99.90
2018-04-14T06:04:36.351Z,99.90
2018-04-14T06:07:04.642Z,99.30
2018-04-14T06:09:32.169Z,99.30
2018-04-14T06:11:59.710Z,98.80
2018-04-14T06:14:27.182Z,99.00
2018-04-14T06:16:54.673Z,98.70
2018-04-14T06:19:22.200Z,98.80
2018-04-14T06:21:49.701Z,98.80
2018-04-14T06:24:17.156Z,98.70
2018-04-14T06:26:44.826Z,98.60
2018-04-14T06:29:12.313Z,98.30
2018-04-14T06:31:39.958Z,98.20
2018-04-14T06:34:07.678Z,98.30
2018-04-14T06:36:35.180Z,98.10
2018-04-14T06:39:02.682Z,98.10
2018-04-14T06:41:30.972Z,97.90
2018-04-14T06:43:58.559Z,97.90
2018-04-14T06:46:26.197Z,97.80
2018-04-14T06:48:53.768Z,98.10
2018-04-14T06:51:21.313Z,98.50
2018-04-14T06:53:48.797Z,97.70
2018-04-14T06:56:16.306Z,97.70
2018-04-14T06:58:43.800Z,97.60
2018-04-14T07:01:11.353Z,97.70
2018-04-14T07:03:39.202Z,97.80
2018-04-14T07:06:06.685Z,97.50
2018-04-14T07:08:34.164Z,97.30
2018-04-14T07:11:01.669Z,97.50
2018-04-14T07:13:29.281Z,97.40
2018-04-14T07:15:56.800Z,97.80
2018-04-14T07:18:24.383Z,97.70
2018-04-14T07:20:52.013Z,98.00
2018-04-14T07:23:19.495Z,98.00
2018-04-14T07:25:47.015Z,98.30
2018-04-14T07:28:14.855Z,97.90
2018-04-14T07:30:42.278Z,97.60
2018-04-14T07:33:09.952Z,97.40
2018-04-14T07:35:37.416Z,97.10
2018-04-14T07:38:05.211Z,96.70
2018-04-14T07:40:32.672Z,95.80
2018-04-14T07:43:00.964Z,94.30
2018-04-14T07:45:28.478Z,94.00
2018-04-14T07:47:56.624Z,92.20
2018-04-14T07:50:24.853Z,91.20
2018-04-14T07:52:52.382Z,91.30
2018-04-14T07:55:20.651Z,92.00
2018-04-14T07:57:48.285Z,91.90
2018-04-14T08:00:15.729Z,92.00
2018-04-14T08:02:43.220Z,92.70
2018-04-14T08:05:10.708Z,93.20
2018-04-14T08:07:38.975Z,93.00
2018-04-14T08:10:07.256Z,90.80
2018-04-14T08:12:35.543Z,90.30
2018-04-14T08:15:03.795Z,91.20
2018-04-14T08:17:31.366Z,91.20
2018-04-14T08:19:58.839Z,90.30
2018-04-14T08:22:27.147Z,91.40
2018-04-14T08:24:54.593Z,91.20
2018-04-14T08:27:22.869Z,90.90
2018-04-14T08:29:51.134Z,90.60
2018-04-14T08:32:18.663Z,90.60
2018-04-14T08:34:46.307Z,90.30
2018-04-14T08:37:13.872Z,88.80
2018-04-14T08:39:41.305Z,85.60
2018-04-14T08:42:12.632Z,83.00
2018-04-14T08:44:40.085Z,82.10
2018-04-14T08:47:07.609Z,80.70
2018-04-14T08:49:35.207Z,73.80
2018-04-14T08:52:02.711Z,70.20
2018-04-14T08:54:30.276Z,67.30
2018-04-14T08:56:57.745Z,62.50
2018-04-14T08:59:25.374Z,56.30
2018-04-14T09:01:52.940Z,50.70
2018-04-14T09:04:21.804Z,46.20
2018-04-14T09:06:49.468Z,43.10
2018-04-14T09:09:16.874Z,36.50
2018-04-14T09:11:44.371Z,33.10
2018-04-14T09:14:12.662Z,32.20
2018-04-14T09:16:40.234Z,31.30
2018-04-14T09:19:07.758Z,29.30
2018-04-14T09:21:36.209Z,27.70
2018-04-14T09:24:03.739Z,26.70
2018-04-14T09:26:31.245Z,26.30
2018-04-14T09:28:58.694Z,25.50
2018-04-14T09:31:26.288Z,25.00
2018-04-14T09:33:53.787Z,25.30
2018-04-14T09:36:21.353Z,24.50
2018-04-14T09:38:49.070Z,25.20
2018-04-14T09:41:16.768Z,25.00
2018-04-14T09:43:45.136Z,25.10
2018-04-14T09:46:12.651Z,25.10
2018-04-14T09:48:40.452Z,26.00
2018-04-14T09:51:08.393Z,24.50
2018-04-14T09:53:35.838Z,24.20
2018-04-14T09:56:04.107Z,25.70
2018-04-14T09:58:31.635Z,25.70
2018-04-14T10:00:59.184Z,25.20
2018-04-14T10:03:26.842Z,26.20
2018-04-14T10:05:54.373Z,27.20
2018-04-14T10:08:22.630Z,25.00
2018-04-14T10:10:51.001Z,23.80
2018-04-14T10:13:18.527Z,23.80
2018-04-14T10:15:46.061Z,25.00
2018-04-14T10:18:13.541Z,25.10
2018-04-14T10:20:41.059Z,25.00
2018-04-14T10:23:09.322Z,25.90
2018-04-14T10:25:36.852Z,26.90
2018-04-14T10:28:04.294Z,27.00
2018-04-14T10:30:31.840Z,26.00
2018-04-14T10:33:00.763Z,26.50
2018-04-14T10:35:28.327Z,25.90
2018-04-14T10:37:55.876Z,24.90
2018-04-14T10:40:23.340Z,25.10
2018-04-14T10:42:51.613Z,25.00
2018-04-14T10:45:19.947Z,25.10
2018-04-14T10:47:47.512Z,25.10
2018-04-14T10:50:14.999Z,23.90
2018-04-14T10:52:42.502Z,24.90
2018-04-14T10:55:10.773Z,26.90
2018-04-14T10:57:39.108Z,27.10
2018-04-14T11:00:06.634Z,27.10
2018-04-14T11:02:34.135Z,27.10
2018-04-14T11:05:01.775Z,27.60
2018-04-14T11:07:29.269Z,26.20
2018-04-14T11:09:56.827Z,26.60
2018-04-14T11:12:25.046Z,25.40
2018-04-14T11:14:52.555Z,25.30
2018-04-14T11:17:20.064Z,25.50
2018-04-14T11:19:47.573Z,26.40
2018-04-14T11:22:15.173Z,27.40
2018-04-14T11:24:42.734Z,27.60
2018-04-14T11:27:10.976Z,27.40
2018-04-14T11:29:38.921Z,25.70
2018-04-14T11:32:07.200Z,24.30
2018-04-14T11:34:34.727Z,24.40
2018-04-14T11:37:02.250Z,23.50
2018-04-14T11:39:29.732Z,24.00
2018-04-14T11:41:57.469Z,23.70
2018-04-14T11:44:24.921Z,23.30
2018-04-14T11:46:54.441Z,24.20
2018-04-14T11:49:22.029Z,24.10
2018-04-14T11:51:50.391Z,25.10
2018-04-14T11:54:18.613Z,26.50
2018-04-14T11:56:46.126Z,26.60
2018-04-14T11:59:13.673Z,26.70
2018-04-14T12:01:41.259Z,26.10
2018-04-14T12:04:09.605Z,27.70
2018-04-14T12:06:37.220Z,27.70
2018-04-14T12:09:04.773Z,27.40
2018-04-14T12:11:32.340Z,25.60
2018-04-14T12:13:59.842Z,25.00
2018-04-14T12:16:27.733Z,24.00
2018-04-14T12:18:55.328Z,23.60
2018-04-14T12:21:23.633Z,22.70
2018-04-14T12:23:51.095Z,22.60
2018-04-14T12:26:18.707Z,22.80
2018-04-14T12:28:46.274Z,23.40
2018-04-14T12:31:15.082Z,23.00
2018-04-14T12:33:42.936Z,22.70
2018-04-14T12:36:10.396Z,22.20
2018-04-14T12:38:37.874Z,23.00
2018-04-14T12:41:06.610Z,22.50
2018-04-14T12:43:34.887Z,23.70
2018-04-14T12:46:03.144Z,24.50
2018-04-14T12:48:32.302Z,24.90
2018-04-14T12:50:59.834Z,24.90
2018-04-14T12:53:27.418Z,24.30
2018-04-14T12:55:55.693Z,22.30
2018-04-14T12:58:23.977Z,21.60
2018-04-14T13:00:51.531Z,21.60
2018-04-14T13:03:19.016Z,21.60
2018-04-14T13:05:46.713Z,21.70
2018-04-14T13:08:15.357Z,21.00
2018-04-14T13:10:43.623Z,20.10
2018-04-14T13:13:11.138Z,20.10
2018-04-14T13:15:38.663Z,20.70
2018-04-14T13:18:06.856Z,22.90
2018-04-14T13:20:36.385Z,22.20
2018-04-14T13:23:04.091Z,22.10
2018-04-14T13:25:31.663Z,21.10
2018-04-14T13:27:59.236Z,20.30
2018-04-14T13:30:27.533Z,20.40
2018-04-14T13:32:55.744Z,20.40
2018-04-14T13:35:23.225Z,21.30
2018-04-14T13:37:50.824Z,22.40
2018-04-14T13:40:18.258Z,22.60
2018-04-14T13:42:46.620Z,21.50
2018-04-14T13:45:14.190Z,22.10
2018-04-14T13:47:41.746Z,22.00
2018-04-14T13:50:11.602Z,21.40
2018-04-14T13:52:39.022Z,22.00
2018-04-14T13:55:07.277Z,21.30
2018-04-14T13:57:34.777Z,20.70
2018-04-14T14:00:02.463Z,20.30
2018-04-14T14:02:30.628Z,20.20
2018-04-14T14:04:58.315Z,21.00
2018-04-14T14:07:26.591Z,20.90
2018-04-14T14:09:54.193Z,20.90
2018-04-14T14:12:22.458Z,20.80
2018-04-14T14:14:49.955Z,20.70
2018-04-14T14:17:17.496Z,21.00
2018-04-14T14:19:45.008Z,21.50
2018-04-14T14:22:12.498Z,22.40
2018-04-14T14:24:41.567Z,23.70
2018-04-14T14:27:09.516Z,23.70
2018-04-14T14:29:37.198Z,23.60
2018-04-14T14:32:04.704Z,23.00
2018-04-14T14:34:33.098Z,23.70
2018-04-14T14:37:01.342Z,24.10
2018-04-14T14:39:28.968Z,24.10
2018-04-14T14:41:56.461Z,24.10
2018-04-14T14:44:23.961Z,24.10
2018-04-14T14:46:51.462Z,24.10
2018-04-14T14:49:18.998Z,24.20
2018-04-14T14:51:46.971Z,24.10
2018-04-14T14:54:15.164Z,24.50
2018-04-14T14:56:42.695Z,24.40
2018-04-14T14:59:10.287Z,25.10
2018-04-14T15:01:38.617Z,25.40
2018-04-14T15:04:06.207Z,25.40
2018-04-14T15:06:33.795Z,25.70
2018-04-14T15:09:02.174Z,25.80
2018-04-14T15:11:29.917Z,25.80
2018-04-14T15:13:58.099Z,25.90
2018-04-14T15:16:26.877Z,25.80
2018-04-14T15:18:54.360Z,25.70
2018-04-14T15:21:21.865Z,25.80
2018-04-14T15:23:49.469Z,26.10
2018-04-14T15:26:17.035Z,26.00
2018-04-14T15:28:44.665Z,26.30
2018-04-14T15:31:12.168Z,26.40
2018-04-14T15:33:39.845Z,26.30
2018-04-14T15:36:07.493Z,26.30
2018-04-14T15:38:34.999Z,26.50
2018-04-14T15:41:03.451Z,27.20
2018-04-14T15:43:31.493Z,26.60
2018-04-14T15:45:58.947Z,26.50
2018-04-14T15:48:26.546Z,26.80
2018-04-14T15:50:54.056Z,27.10
2018-04-14T15:53:21.566Z,26.60
2018-04-14T15:55:49.121Z,27.30
2018-04-14T15:58:16.693Z,27.20
2018-04-14T16:00:44.195Z,27.40
2018-04-14T16:03:11.713Z,27.80
2018-04-14T16:05:39.193Z,27.90
2018-04-14T16:08:07.466Z,28.10
2018-04-14T16:10:35.045Z,28.20
2018-04-14T16:13:02.591Z,27.90
2018-04-14T16:15:30.130Z,27.80
2018-04-14T16:17:57.627Z,27.90
2018-04-14T16:20:26.071Z,30.30
2018-04-14T16:22:54.319Z,31.50
2018-04-14T16:25:21.926Z,31.40
2018-04-14T16:27:49.486Z,31.50
2018-04-14T16:30:16.960Z,31.40
2018-04-14T16:32:44.969Z,31.40
2018-04-14T16:35:14.252Z,31.50
2018-04-14T16:37:41.832Z,31.50
2018-04-14T16:40:09.432Z,31.50
2018-04-14T16:42:37.784Z,31.30
2018-04-14T16:45:05.296Z,31.30
2018-04-14T16:47:33.128Z,31.30
2018-04-14T16:50:00.619Z,31.20
2018-04-14T16:52:28.180Z,32.40
2018-04-14T16:54:55.756Z,32.90
2018-04-14T16:57:23.259Z,33.30
2018-04-14T16:59:50.791Z,32.90
2018-04-14T17:02:18.275Z,33.30
2018-04-14T17:04:46.189Z,34.00
2018-04-14T17:07:13.778Z,33.60
2018-04-14T17:09:43.212Z,33.80
2018-04-14T17:12:11.563Z,38.80
2018-04-14T17:14:39.868Z,40.20
2018-04-14T17:17:07.379Z,40.20
2018-04-14T17:19:35.682Z,41.70
2018-04-14T17:22:04.836Z,41.70
2018-04-14T17:24:32.300Z,41.80
2018-04-14T17:26:59.910Z,42.20
2018-04-14T17:29:27.426Z,42.80
2018-04-14T17:31:55.195Z,43.60
2018-04-14T17:34:22.691Z,43.90
2018-04-14T17:36:50.193Z,44.90
2018-04-14T17:39:17.727Z,44.50
2018-04-14T17:41:46.114Z,45.00
2018-04-14T17:44:13.632Z,45.00
2018-04-14T17:46:41.189Z,45.30
2018-04-14T17:49:09.052Z,45.40
2018-04-14T17:51:36.643Z,46.00
2018-04-14T17:54:05.137Z,45.80
2018-04-14T17:56:32.585Z,45.60
2018-04-14T17:59:00.162Z,45.50
2018-04-14T18:01:27.789Z,45.90
2018-04-14T18:03:55.244Z,46.50
2018-04-14T18:06:22.783Z,44.70
2018-04-14T18:08:50.351Z,45.00
2018-04-14T18:11:17.960Z,45.80
2018-04-14T18:13:46.123Z,47.10
2018-04-14T18:16:13.862Z,46.90
2018-04-14T18:18:41.548Z,47.40
2018-04-14T18:21:09.696Z,48.20
2018-04-14T18:23:37.969Z,48.20
2018-04-14T18:26:05.522Z,48.40
2018-04-14T18:28:33.160Z,48.80
2018-04-14T18:31:00.711Z,48.90
2018-04-14T18:33:28.522Z,49.70
2018-04-14T18:35:56.068Z,49.60
2018-04-14T18:38:24.225Z,49.60
2018-04-14T18:40:52.730Z,49.50
2018-04-14T18:43:20.378Z,49.50
2018-04-14T18:45:48.095Z,49.50
2018-04-14T18:48:15.621Z,50.30
2018-04-14T18:50:43.170Z,50.50
2018-04-14T18:53:10.666Z,49.90
2018-04-14T18:55:38.248Z,49.40
2018-04-14T18:58:05.770Z,50.00
2018-04-14T19:00:33.222Z,50.70
2018-04-14T19:03:00.795Z,51.40
2018-04-14T19:05:28.273Z,51.50
2018-04-14T19:07:55.910Z,51.70
2018-04-14T19:10:23.492Z,51.20
2018-04-14T19:12:51.784Z,51.30
2018-04-14T19:15:19.323Z,51.20
2018-04-14T19:17:46.772Z,52.50
2018-04-14T19:20:14.309Z,51.50
2018-04-14T19:22:43.028Z,51.50
2018-04-14T19:25:10.582Z,51.50
2018-04-14T19:27:39.344Z,53.10
2018-04-14T19:30:08.549Z,53.00
2018-04-14T19:32:36.590Z,53.60
2018-04-14T19:35:04.183Z,52.00
2018-04-14T19:37:33.596Z,51.50
2018-04-14T19:40:01.333Z,51.70
2018-04-14T19:42:30.123Z,51.90
2018-04-14T19:44:57.720Z,52.00
2018-04-14T19:47:25.573Z,53.10
2018-04-14T19:49:53.192Z,51.70
2018-04-14T19:52:20.873Z,51.60
2018-04-14T19:54:49.189Z,51.50
2018-04-14T19:57:17.543Z,51.40
2018-04-14T19:59:45.261Z,52.60
2018-04-14T20:02:13.715Z,52.50
2018-04-14T20:04:41.291Z,52.50
2018-04-14T20:07:10.825Z,52.60
2018-04-14T20:09:39.440Z,53.60
2018-04-14T20:12:07.762Z,54.70
2018-04-14T20:14:35.293Z,54.70
2018-04-14T20:17:02.822Z,55.00
2018-04-14T20:19:31.217Z,57.40
2018-04-14T20:21:58.791Z,57.20
2018-04-14T20:24:26.526Z,58.40
2018-04-14T20:26:54.757Z,58.80
2018-04-14T20:29:22.321Z,59.50
2018-04-14T20:31:50.025Z,59.60
2018-04-14T20:34:17.621Z,60.90
2018-04-14T20:36:45.164Z,62.30
2018-04-14T20:39:12.714Z,63.00
2018-04-14T20:41:40.219Z,62.70
2018-04-14T20:44:07.763Z,63.60
2018-04-14T20:46:35.421Z,64.70
2018-04-14T20:49:03.120Z,64.40
2018-04-14T20:51:30.676Z,64.80
2018-04-14T20:53:58.948Z,68.10
2018-04-14T20:56:26.420Z,67.90
2018-04-14T20:58:54.744Z,69.10
2018-04-14T21:01:23.087Z,69.50
2018-04-14T21:03:51.362Z,69.70
2018-04-14T21:06:18.833Z,69.70
2018-04-14T21:08:46.365Z,69.90
2018-04-14T21:11:13.867Z,69.30
2018-04-14T21:13:41.390Z,70.80
2018-04-14T21:16:08.957Z,71.40
2018-04-14T21:18:36.528Z,72.20
2018-04-14T21:21:05.250Z,72.80
2018-04-14T21:23:32.793Z,74.40
2018-04-14T21:26:00.587Z,74.30
2018-04-14T21:28:28.069Z,74.30
2018-04-14T21:30:56.584Z,73.00
2018-04-14T21:33:24.096Z,73.00
2018-04-14T21:35:52.463Z,74.60
2018-04-14T21:38:20.126Z,74.50
2018-04-14T21:40:47.652Z,72.80
2018-04-14T21:43:15.147Z,73.70
2018-04-14T21:45:43.467Z,73.40
2018-04-14T21:48:11.011Z,73.40
2018-04-14T21:50:39.256Z,75.60
2018-04-14T21:53:06.840Z,75.60
2018-04-14T21:55:34.323Z,77.40
2018-04-14T21:58:01.823Z,77.40
2018-04-14T22:00:29.516Z,77.30
2018-04-14T22:02:57.726Z,77.40
2018-04-14T22:05:25.259Z,78.50
2018-04-14T22:07:52.783Z,78.60
2018-04-14T22:10:21.187Z,79.50
2018-04-14T22:12:49.017Z,79.90
2018-04-14T22:15:16.491Z,79.00
2018-04-14T22:17:44.801Z,79.30
2018-04-14T22:20:12.315Z,79.20
2018-04-14T22:22:41.597Z,80.30
2018-04-14T22:25:09.077Z,82.50
2018-04-14T22:27:38.612Z,84.60
2018-04-14T22:30:06.213Z,84.60
2018-04-14T22:32:33.874Z,86.50
2018-04-14T22:35:01.383Z,88.60
2018-04-14T22:37:29.668Z,90.70
2018-04-14T22:39:57.943Z,91.00
2018-04-14T22:42:26.299Z,91.50
2018-04-14T22:44:53.788Z,91.50
2018-04-14T22:47:22.064Z,92.30
2018-04-14T22:49:49.666Z,92.30
2018-04-14T22:52:17.263Z,92.70
2018-04-14T22:54:45.235Z,93.10
2018-04-14T22:57:12.755Z,93.70
2018-04-14T22:59:41.025Z,94.00
2018-04-14T23:02:09.323Z,95.30
2018-04-14T23:04:36.815Z,95.30
2018-04-14T23:07:04.421Z,95.90
2018-04-14T23:09:31.915Z,96.50
2018-04-14T23:11:59.461Z,96.80
2018-04-14T23:14:26.948Z,96.90
2018-04-14T23:16:54.781Z,96.90
2018-04-14T23:19:22.261Z,97.00
2018-04-14T23:21:50.709Z,97.20
2018-04-14T23:24:18.276Z,97.20
2018-04-14T23:26:45.919Z,97.30
2018-04-14T23:29:13.447Z,97.60
2018-04-14T23:31:41.028Z,98.00
2018-04-14T23:34:08.529Z,98.00
2018-04-14T23:36:36.054Z,98.20
2018-04-14T23:39:04.322Z,98.40
2018-04-14T23:41:32.630Z,98.40
2018-04-14T23:44:00.933Z,98.40
2018-04-14T23:46:28.412Z,98.40
2018-04-14T23:48:55.916Z,98.40
2018-04-14T23:51:24.283Z,98.50
2018-04-14T23:53:51.820Z,98.50
2018-04-14T23:56:19.302Z,98.50
2018-04-14T23:58:47.613Z,98.60
